Current Weather

Moundou

Moundou, Chad (FTTD)

Report from: Saturday, February 4, 2023 4:00 PM WAT
Current time: Sunday, February 5, 2023 5:19 AM WAT

Nearby weather
Weather history
Weather forecast

Temperature37.0°C (98.6°F)
Heat index34.3°C (93.7°F)
Dew point2.0°C (35.6°F)
Winds 4 kts (2.1 m/s, 4.6 mph) North (360°)
Clouds Sky clear
Altimeter29.80 in.Hg (1009 mB)
Relative humidity11 %
Density altitude2,738 ft. (835 m)
Remarks Ceiling and visibility OK
Flight conditions Visual Meteorological Conditions
Raw dataFTTD 041500Z 36004KT CAVOK 37/02 Q1009
An unhandled exception has occurred. See browser dev tools for details. Reload 🗙